CMP777 MZBZ-MPTO
Flight info
| Callsign | CMP777 |
|---|---|
| Flight time | N/A |
| Altitude | 33000 |
| Route | VESKU1D VESKU DCT BTO UM206 ANSON DCT AROVI VUMAN2C |
| Aircraft | B738/M-SDE2E3FGHIRWXY/LB1 |
Departure
| Time | N/A |
|---|---|
| Airport | Philip S. W. Goldson International Airport (MZBZ) |
Arrival
| Time | 2026-05-03 20:32 |
|---|---|
| Airport | Tocumen International Airport (MPTO) |
| Time | Latitude | Longitude | Altitude | Speed | Heading |
|---|---|---|---|---|---|
| 2026-05-03 20:15 | 9.14748 | -80.46610 | 17639 ft | 357 kts | 139° |
| 2026-05-03 20:15 | 9.12890 | -80.45011 | 17455 ft | 345 kts | 141° |
| 2026-05-03 20:15 | 9.11058 | -80.43506 | 17313 ft | 335 kts | 140° |
| 2026-05-03 20:15 | 9.09291 | -80.42012 | 17176 ft | 326 kts | 140° |
| 2026-05-03 20:16 | 9.07590 | -80.40548 | 17060 ft | 316 kts | 136° |
| 2026-05-03 20:16 | 9.06321 | -80.38795 | 16985 ft | 306 kts | 117° |
| 2026-05-03 20:16 | 9.05630 | -80.36748 | 16642 ft | 310 kts | 103° |
| 2026-05-03 20:16 | 9.05206 | -80.34607 | 16334 ft | 312 kts | 101° |
| 2026-05-03 20:17 | 9.04825 | -80.32459 | 16000 ft | 315 kts | 101° |
| 2026-05-03 20:17 | 9.04442 | -80.30268 | 15658 ft | 318 kts | 101° |
| 2026-05-03 20:17 | 9.04049 | -80.28056 | 15325 ft | 319 kts | 101° |
| 2026-05-03 20:17 | 9.03651 | -80.25852 | 14970 ft | 317 kts | 101° |
| 2026-05-03 20:18 | 9.03251 | -80.23667 | 14635 ft | 316 kts | 101° |
| 2026-05-03 20:18 | 9.02847 | -80.21488 | 14282 ft | 314 kts | 101° |
| 2026-05-03 20:18 | 9.02443 | -80.19318 | 13930 ft | 313 kts | 101° |
| 2026-05-03 20:18 | 9.02037 | -80.17150 | 13599 ft | 312 kts | 101° |
| 2026-05-03 20:19 | 9.01634 | -80.15005 | 13260 ft | 310 kts | 100° |
| 2026-05-03 20:19 | 9.01232 | -80.12865 | 12927 ft | 308 kts | 101° |
| 2026-05-03 20:19 | 9.00832 | -80.10740 | 12604 ft | 307 kts | 100° |
| 2026-05-03 20:19 | 9.00433 | -80.08626 | 12291 ft | 304 kts | 100° |
| 2026-05-03 20:20 | 9.00044 | -80.06539 | 11986 ft | 299 kts | 99° |
| 2026-05-03 20:20 | 8.99679 | -80.04495 | 11673 ft | 298 kts | 101° |
| 2026-05-03 20:20 | 8.99273 | -80.02442 | 11349 ft | 296 kts | 100° |
| 2026-05-03 20:20 | 8.98862 | -80.00407 | 11041 ft | 294 kts | 101° |
| 2026-05-03 20:21 | 8.98480 | -79.98387 | 10741 ft | 294 kts | 99° |
| 2026-05-03 20:21 | 8.98131 | -79.96355 | 10413 ft | 295 kts | 100° |
| 2026-05-03 20:21 | 8.97744 | -79.94324 | 10120 ft | 293 kts | 100° |
| 2026-05-03 20:21 | 8.97351 | -79.92305 | 9802 ft | 288 kts | 101° |
| 2026-05-03 20:22 | 8.96954 | -79.90312 | 9512 ft | 288 kts | 100° |
| 2026-05-03 20:22 | 8.96636 | -79.88305 | 9193 ft | 288 kts | 97° |
| 2026-05-03 20:22 | 8.96306 | -79.86294 | 8872 ft | 290 kts | 101° |
| 2026-05-03 20:22 | 8.95893 | -79.84318 | 8574 ft | 291 kts | 101° |
| 2026-05-03 20:23 | 8.95487 | -79.82325 | 8275 ft | 287 kts | 101° |
| 2026-05-03 20:23 | 8.95001 | -79.80393 | 7971 ft | 281 kts | 107° |
| 2026-05-03 20:23 | 8.94392 | -79.78539 | 7668 ft | 275 kts | 108° |
| 2026-05-03 20:23 | 8.93775 | -79.76729 | 7383 ft | 271 kts | 108° |
| 2026-05-03 20:24 | 8.93167 | -79.74932 | 7106 ft | 269 kts | 108° |
| 2026-05-03 20:24 | 8.92570 | -79.73137 | 6829 ft | 268 kts | 108° |
| 2026-05-03 20:24 | 8.91981 | -79.71346 | 6559 ft | 268 kts | 108° |
| 2026-05-03 20:24 | 8.91382 | -79.69570 | 6272 ft | 270 kts | 108° |
| 2026-05-03 20:25 | 8.90790 | -79.67779 | 5985 ft | 268 kts | 105° |
| 2026-05-03 20:25 | 8.90254 | -79.65969 | 5710 ft | 268 kts | 109° |
| 2026-05-03 20:25 | 8.89656 | -79.64192 | 5400 ft | 266 kts | 108° |
| 2026-05-03 20:25 | 8.89079 | -79.62418 | 5116 ft | 263 kts | 108° |
| 2026-05-03 20:26 | 8.88528 | -79.60702 | 4844 ft | 258 kts | 104° |
| 2026-05-03 20:26 | 8.88492 | -79.58932 | 4577 ft | 249 kts | 77° |
| 2026-05-03 20:26 | 8.88741 | -79.57203 | 4339 ft | 248 kts | 82° |
| 2026-05-03 20:26 | 8.88966 | -79.55470 | 4066 ft | 250 kts | 82° |
| 2026-05-03 20:27 | 8.89199 | -79.53730 | 3810 ft | 248 kts | 82° |
| 2026-05-03 20:27 | 8.89418 | -79.51993 | 3544 ft | 246 kts | 85° |
| 2026-05-03 20:27 | 8.89616 | -79.50292 | 3275 ft | 241 kts | 82° |
| 2026-05-03 20:27 | 8.89874 | -79.48646 | 3036 ft | 233 kts | 74° |
| 2026-05-03 20:28 | 8.90682 | -79.47337 | 2800 ft | 220 kts | 36° |
| 2026-05-03 20:28 | 8.91965 | -79.46592 | 2623 ft | 207 kts | 29° |
| 2026-05-03 20:28 | 8.93185 | -79.45869 | 2406 ft | 200 kts | 30° |
| 2026-05-03 20:28 | 8.94374 | -79.45169 | 2195 ft | 197 kts | 29° |
| 2026-05-03 20:29 | 8.95551 | -79.44478 | 1986 ft | 196 kts | 32° |
| 2026-05-03 20:29 | 8.96730 | -79.43800 | 1773 ft | 190 kts | 29° |
| 2026-05-03 20:29 | 8.97824 | -79.43189 | 1664 ft | 170 kts | 27° |
| 2026-05-03 20:29 | 8.98843 | -79.42630 | 1371 ft | 164 kts | 27° |
| 2026-05-03 20:30 | 8.99503 | -79.42256 | 1292 ft | 159 kts | 28° |
| 2026-05-03 20:30 | 9.00469 | -79.41705 | 1029 ft | 157 kts | 28° |
| 2026-05-03 20:30 | 9.01406 | -79.41161 | 819 ft | 155 kts | 28° |
| 2026-05-03 20:30 | 9.02333 | -79.40632 | 624 ft | 156 kts | 27° |
| 2026-05-03 20:31 | 9.03294 | -79.40097 | 407 ft | 154 kts | 29° |
| 2026-05-03 20:31 | 9.04215 | -79.39567 | 195 ft | 155 kts | 28° |
| 2026-05-03 20:31 | 9.05151 | -79.39038 | 45 ft | 149 kts | 28° |
| 2026-05-03 20:31 | 9.05981 | -79.38567 | 32 ft | 120 kts | 29° |
| 2026-05-03 20:32 | 9.06584 | -79.38225 | 28 ft | 74 kts | 29° |
| 2026-05-03 20:32 | 9.06910 | -79.38040 | 29 ft | 41 kts | 30° |
| 2026-05-03 20:32 | 9.07111 | -79.37929 | 29 ft | 23 kts | 15° |
| 2026-05-03 20:32 | 9.07204 | -79.38020 | 29 ft | 17 kts | 273° |
| 2026-05-03 20:33 | 9.07135 | -79.38099 | 29 ft | 16 kts | 213° |
| 2026-05-03 20:33 | 9.07122 | -79.38169 | 29 ft | 4 kts | 295° |